Time;durP1;ratioP1;P1;durP2;ratioP2;P2;SDS_P1;SDS_P2;PMS_P1;PMS_P2;Temp;Humidity;BMP_temperature;BMP_pressure;BME280_temperature;BME280_humidity;BME280_pressure;Samples;Min_cycle;Max_cycle;Signal;HPM_P1;HPM_P2
2024/03/23 00:01:09;;;;;;;;;;;;;;;;;;4918674;29;19915;-82
2024/03/23 00:03:35;;;;;;;;;;;;;;;;;;4917809;29;19968;-83
2024/03/23 00:06:17;;;;;;;;;;;;;;;;;;;;;
2024/03/23 00:08:44;;;;;;;;;;;;;;;;;;4906358;29;19916;-84
2024/03/23 00:11:10;;;;;;;;;;;;;;;;;;4909259;29;19939;-82
2024/03/23 00:13:54;;;;;;;;;;;;;;;;;;4915168;29;19911;-84
2024/03/23 00:16:25;;;;;;;;;;;;;;;;;;4904378;29;19936;-83
2024/03/23 00:21:40;;;;;;;;;;;;;;;;;;4918259;29;19950;-84
2024/03/23 00:24:12;;;;;;;;;;;;;;;;;;4909572;29;19916;-84
2024/03/23 00:26:50;;;;;;;;;;;;;;;;;;4895573;29;19919;-83
2024/03/23 00:29:16;;;;;;;;;;;;;;;;;;4924366;29;19921;-87
2024/03/23 00:34:29;;;;;;;;;;;;;;;;;;4903948;29;19915;-88
2024/03/23 00:36:55;;;;;;;;;;;;;;;;;;4899242;29;20045;-88
2024/03/23 00:39:21;;;;;;;;;;;;;;;;;;4910320;29;19915;-89
2024/03/23 00:41:46;;;;;;;;;;;;;;;;;;4910365;29;19981;-89
2024/03/23 00:44:13;;;;;;;;;;;;;;;;;;4916907;29;19910;-89
2024/03/23 00:46:39;;;;;;;;;;;;;;;;;;4928056;29;19942;-88
2024/03/23 00:52:03;;;;;;;;;;;;;;;;;;4924174;29;20290;-89
2024/03/23 00:54:41;;;;;;;;;;;;;;;;;;4924815;29;19946;-88
2024/03/23 00:57:14;;;;;;;;;;;;;;;;;;4924354;29;19915;-88
2024/03/23 00:59:40;;;;;;;;;;;;;;;;;;4919329;29;20001;-89
2024/03/23 01:02:06;;;;;;;;;;;;;;;;;;4913520;29;19938;-88
2024/03/23 01:04:35;;;;;;;;;;;;;;;;;;4922133;29;20295;-87
2024/03/23 01:07:04;;;;;;;;;;;;;;;;;;4925320;29;19911;-88
2024/03/23 01:09:39;;;;;;;;;;;;;;;;;;4921493;29;20252;-88
2024/03/23 01:12:17;;;;;;;;;;;;;;;;;;;;;
2024/03/23 01:14:43;;;;;;;;;;;;;;;;;;4923870;29;20006;-88
2024/03/23 01:17:10;;;;;;;;;;;;;;;;;;4917969;29;20005;-88
2024/03/23 01:19:36;;;;;;;;;;;;;;;;;;4930670;29;19986;-88
2024/03/23 01:22:05;;;;;;;;;;;;;;;;;;4925707;29;20352;-88
2024/03/23 01:24:31;;;;;;;;;;;;;;;;;;4929255;29;19953;-87
2024/03/23 01:26:57;;;;;;;;;;;;;;;;;;4914023;29;19949;-88
2024/03/23 01:29:23;;;;;;;;;;;;;;;;;;4933273;29;19915;-88
2024/03/23 01:31:49;;;;;;;;;;;;;;;;;;4924942;29;19998;-88
2024/03/23 01:34:15;;;;;;;;;;;;;;;;;;4929188;29;19947;-88
2024/03/23 01:36:41;;;;;;;;;;;;;;;;;;4933586;29;19942;-88
2024/03/23 01:39:09;;;;;;;;;;;;;;;;;;4932056;29;19953;-84
2024/03/23 01:41:35;;;;;;;;;;;;;;;;;;4916226;29;20549;-85
2024/03/23 01:44:01;;;;;;;;;;;;;;;;;;4930492;29;20044;-85
2024/03/23 01:46:27;;;;;;;;;;;;;;;;;;4932111;29;19937;-85
2024/03/23 01:48:53;;;;;;;;;;;;;;;;;;4927985;29;20426;-85
2024/03/23 01:51:19;;;;;;;;;;;;;;;;;;4933177;29;19933;-85
2024/03/23 01:53:44;;;;;;;;;;;;;;;;;;4930086;29;20411;-85
2024/03/23 01:56:10;;;;;;;;;;;;;;;;;;4922118;29;20395;-85
2024/03/23 01:58:36;;;;;;;;;;;;;;;;;;4928173;29;19957;-85
2024/03/23 02:01:02;;;;;;;;;;;;;;;;;;4929216;29;19914;-85
2024/03/23 02:03:28;;;;;;;;;;;;;;;;;;4930690;29;20410;-86
2024/03/23 02:05:54;;;;;;;;;;;;;;;;;;4923862;29;20690;-85
2024/03/23 02:08:20;;;;;;;;;;;;;;;;;;4926377;29;19919;-85
2024/03/23 02:10:47;;;;;;;;;;;;;;;;;;4933043;29;20009;-85
2024/03/23 02:13:13;;;;;;;;;;;;;;;;;;4932052;29;19914;-85
2024/03/23 02:15:39;;;;;;;;;;;;;;;;;;4931778;29;19926;-85
2024/03/23 02:18:05;;;;;;;;;;;;;;;;;;4930688;29;19929;-85
2024/03/23 02:20:31;;;;;;;;;;;;;;;;;;4932163;29;20064;-85
2024/03/23 02:22:57;;;;;;;;;;;;;;;;;;4930512;29;20010;-84
2024/03/23 02:25:22;;;;;;;;;;;;;;;;;;4928675;29;20327;-85
2024/03/23 02:27:49;;;;;;;;;;;;;;;;;;4927062;29;19965;-85
2024/03/23 02:30:15;;;;;;;;;;;;;;;;;;4931129;29;19918;-85
2024/03/23 02:32:41;;;;;;;;;;;;;;;;;;4929341;29;19965;-85
2024/03/23 02:35:07;;;;;;;;;;;;;;;;;;4928410;29;20325;-85
2024/03/23 02:37:33;;;;;;;;;;;;;;;;;;4926990;29;20447;-85
2024/03/23 02:39:59;;;;;;;;;;;;;;;;;;4927182;29;19950;-85
2024/03/23 02:42:24;;;;;;;;;;;;;;;;;;4931293;29;19958;-85
2024/03/23 02:44:50;;;;;;;;;;;;;;;;;;4930671;29;19957;-84
2024/03/23 02:47:16;;;;;;;;;;;;;;;;;;4930851;29;20034;-85
2024/03/23 02:49:42;;;;;;;;;;;;;;;;;;4931044;29;19942;-84
2024/03/23 02:52:08;;;;;;;;;;;;;;;;;;4928298;29;19949;-83
2024/03/23 02:54:34;;;;;;;;;;;;;;;;;;4920957;29;20392;-84
2024/03/23 02:57:00;;;;;;;;;;;;;;;;;;4928567;29;19957;-83
2024/03/23 02:59:26;;;;;;;;;;;;;;;;;;4930959;29;20335;-83
2024/03/23 03:01:52;;;;;;;;;;;;;;;;;;4928733;29;20350;-84
2024/03/23 03:04:18;;;;;;;;;;;;;;;;;;4931029;29;20339;-83
2024/03/23 03:06:44;;;;;;;;;;;;;;;;;;4933114;29;20379;-83
2024/03/23 03:09:10;;;;;;;;;;;;;;;;;;4928240;29;19942;-83
2024/03/23 03:11:36;;;;;;;;;;;;;;;;;;4914632;29;20088;-83
2024/03/23 03:14:02;;;;;;;;;;;;;;;;;;4931546;29;20374;-83
2024/03/23 03:16:28;;;;;;;;;;;;;;;;;;4928494;29;19919;-82
2024/03/23 03:18:54;;;;;;;;;;;;;;;;;;4932660;29;19965;-83
2024/03/23 03:21:20;;;;;;;;;;;;;;;;;;4919187;29;20002;-83
2024/03/23 03:23:46;;;;;;;;;;;;;;;;;;4935232;29;19950;-84
2024/03/23 03:26:12;;;;;;;;;;;;;;;;;;4924453;29;20449;-83
2024/03/23 03:28:38;;;;;;;;;;;;;;;;;;4934918;29;19910;-83
2024/03/23 03:31:04;;;;;;;;;;;;;;;;;;4937866;29;19954;-83
2024/03/23 03:33:30;;;;;;;;;;;;;;;;;;4920047;29;19914;-83
2024/03/23 03:35:56;;;;;;;;;;;;;;;;;;4932132;29;19954;-83
2024/03/23 03:38:21;;;;;;;;;;;;;;;;;;4937230;29;19946;-82
2024/03/23 03:40:47;;;;;;;;;;;;;;;;;;4920989;29;19910;-82
2024/03/23 03:43:13;;;;;;;;;;;;;;;;;;4937616;29;20402;-82
2024/03/23 03:45:39;;;;;;;;;;;;;;;;;;4923966;29;19915;-82
2024/03/23 03:48:05;;;;;;;;;;;;;;;;;;4949326;29;19918;-84
2024/03/23 03:50:31;;;;;;;;;;;;;;;;;;4957683;28;19903;-85
2024/03/23 03:52:57;;;;;;;;;;;;;;;;;;4959579;28;19930;-85
2024/03/23 03:55:23;;;;;;;;;;;;;;;;;;4961355;28;19910;-84
2024/03/23 03:57:49;;;;;;;;;;;;;;;;;;4960745;28;19925;-86
2024/03/23 04:00:15;;;;;;;;;;;;;;;;;;4941042;29;20005;-85
2024/03/23 04:02:41;;;;;;;;;;;;;;;;;;4940278;29;20334;-85
2024/03/23 04:05:08;;;;;;;;;;;;;;;;;;4958442;29;19899;-85
2024/03/23 04:07:34;;;;;;;;;;;;;;;;;;4939606;29;19898;-87
2024/03/23 04:09:59;;;;;;;;;;;;;;;;;;4935110;29;19932;-85
2024/03/23 04:12:25;;;;;;;;;;;;;;;;;;4956394;28;19974;-86
2024/03/23 04:14:51;;;;;;;;;;;;;;;;;;4955861;29;19899;-86
2024/03/23 04:17:17;;;;;;;;;;;;;;;;;;4951034;29;19928;-85
2024/03/23 04:19:43;;;;;;;;;;;;;;;;;;4936589;29;19915;-84
2024/03/23 04:22:09;;;;;;;;;;;;;;;;;;4923941;29;19917;-84
2024/03/23 04:24:35;;;;;;;;;;;;;;;;;;4921988;29;19918;-84
2024/03/23 04:27:01;;;;;;;;;;;;;;;;;;4938284;29;20362;-85
2024/03/23 04:29:27;;;;;;;;;;;;;;;;;;4938275;29;20418;-85
2024/03/23 04:31:53;;;;;;;;;;;;;;;;;;4929545;29;19910;-84
2024/03/23 04:34:19;;;;;;;;;;;;;;;;;;4937693;29;19913;-85
2024/03/23 04:36:45;;;;;;;;;;;;;;;;;;4940595;29;19958;-86
2024/03/23 04:39:11;;;;;;;;;;;;;;;;;;4936573;29;19974;-86
2024/03/23 04:41:37;;;;;;;;;;;;;;;;;;4946949;29;20370;-84
2024/03/23 04:44:03;;;;;;;;;;;;;;;;;;4949160;29;19919;-85
2024/03/23 04:46:29;;;;;;;;;;;;;;;;;;4949460;29;19910;-85
2024/03/23 04:48:56;;;;;;;;;;;;;;;;;;4947120;29;19922;-85
2024/03/23 04:51:22;;;;;;;;;;;;;;;;;;4947224;29;19901;-85
2024/03/23 04:53:48;;;;;;;;;;;;;;;;;;4930294;29;19942;-85
2024/03/23 04:56:14;;;;;;;;;;;;;;;;;;4950969;29;20009;-86
2024/03/23 04:58:40;;;;;;;;;;;;;;;;;;4950009;29;19918;-84
2024/03/23 05:01:06;;;;;;;;;;;;;;;;;;4948150;29;19921;-85
2024/03/23 05:03:32;;;;;;;;;;;;;;;;;;4950540;29;19911;-85
2024/03/23 05:05:58;;;;;;;;;;;;;;;;;;4949680;29;20446;-85
2024/03/23 05:08:24;;;;;;;;;;;;;;;;;;4942636;29;19911;-85
2024/03/23 05:10:50;;;;;;;;;;;;;;;;;;4941041;29;19961;-83
2024/03/23 05:13:16;;;;;;;;;;;;;;;;;;4944959;29;20353;-83
2024/03/23 05:15:42;;;;;;;;;;;;;;;;;;4950635;29;19925;-84
2024/03/23 05:18:08;;;;;;;;;;;;;;;;;;4943256;29;19918;-84
2024/03/23 05:20:34;;;;;;;;;;;;;;;;;;4940445;29;19910;-82
2024/03/23 05:23:00;;;;;;;;;;;;;;;;;;4936517;29;20278;-83
2024/03/23 05:25:26;;;;;;;;;;;;;;;;;;4936465;29;19917;-84
2024/03/23 05:27:52;;;;;;;;;;;;;;;;;;4946763;29;20232;-85
2024/03/23 05:30:18;;;;;;;;;;;;;;;;;;4931511;29;20366;-83
2024/03/23 05:32:44;;;;;;;;;;;;;;;;;;4942011;29;19918;-83
2024/03/23 05:35:10;;;;;;;;;;;;;;;;;;4937768;29;19914;-84
2024/03/23 05:37:37;;;;;;;;;;;;;;;;;;4927551;29;19917;-82
2024/03/23 05:40:03;;;;;;;;;;;;;;;;;;4938850;29;20009;-83
2024/03/23 05:42:29;;;;;;;;;;;;;;;;;;4933320;29;19911;-83
2024/03/23 05:44:55;;;;;;;;;;;;;;;;;;4934266;29;19918;-82
2024/03/23 05:47:21;;;;;;;;;;;;;;;;;;4930862;29;19918;-82
2024/03/23 05:49:47;;;;;;;;;;;;;;;;;;4935421;29;20284;-82
2024/03/23 05:52:13;;;;;;;;;;;;;;;;;;4933677;29;19907;-84
2024/03/23 05:54:39;;;;;;;;;;;;;;;;;;4927412;29;20005;-84
2024/03/23 05:57:07;;;;;;;;;;;;;;;;;;4929663;29;20017;-83
2024/03/23 05:59:33;;;;;;;;;;;;;;;;;;4910338;29;19911;-84
2024/03/23 06:01:59;;;;;;;;;;;;;;;;;;4911386;29;19965;-84
2024/03/23 06:04:25;;;;;;;;;;;;;;;;;;4934225;29;19954;-84
2024/03/23 06:06:52;;;;;;;;;;;;;;;;;;4925609;29;19906;-85
2024/03/23 06:09:19;;;;;;;;;;;;;;;;;;4930772;29;20008;-84
2024/03/23 06:11:45;;;;;;;;;;;;;;;;;;4929625;29;19907;-84
2024/03/23 06:14:11;;;;;;;;;;;;;;;;;;4929711;29;19907;-83
2024/03/23 06:16:37;;;;;;;;;;;;;;;;;;4918598;29;19962;-84
2024/03/23 06:19:04;;;;;;;;;;;;;;;;;;4914088;29;19961;-83
2024/03/23 06:21:30;;;;;;;;;;;;;;;;;;4936302;29;19939;-83
2024/03/23 06:23:56;;;;;;;;;;;;;;;;;;4920234;29;19915;-82
2024/03/23 06:26:22;;;;;;;;;;;;;;;;;;4935810;29;20354;-82
2024/03/23 06:28:48;;;;;;;;;;;;;;;;;;4932720;29;19914;-83
2024/03/23 06:31:14;;;;;;;;;;;;;;;;;;4935217;29;19921;-84
2024/03/23 06:33:43;;;;;;;;;;;;;;;;;;4927615;29;19926;-82
2024/03/23 06:36:09;;;;;;;;;;;;;;;;;;4921662;29;19926;-83
2024/03/23 06:38:35;;;;;;;;;;;;;;;;;;4921127;29;20116;-82
2024/03/23 06:41:01;;;;;;;;;;;;;;;;;;4927125;29;19953;-82
2024/03/23 06:43:26;;;;;;;;;;;;;;;;;;4932058;29;19942;-82
2024/03/23 06:45:52;;;;;;;;;;;;;;;;;;4930660;29;19965;-81
2024/03/23 06:48:19;;;;;;;;;;;;;;;;;;4932016;29;20009;-82
2024/03/23 06:50:46;;;;;;;;;;;;;;;;;;4936003;29;20501;-81
2024/03/23 06:53:12;;;;;;;;;;;;;;;;;;4938880;29;20370;-82
2024/03/23 06:55:38;;;;;;;;;;;;;;;;;;4923949;29;20021;-84
2024/03/23 06:58:04;;;;;;;;;;;;;;;;;;4928346;29;20330;-82
2024/03/23 07:00:30;;;;;;;;;;;;;;;;;;4941115;29;20379;-82
2024/03/23 07:02:55;;;;;;;;;;;;;;;;;;4918170;29;19970;-81
2024/03/23 07:05:21;;;;;;;;;;;;;;;;;;4949203;29;19957;-83
2024/03/23 07:07:47;;;;;;;;;;;;;;;;;;4937406;29;19957;-81
2024/03/23 07:10:13;;;;;;;;;;;;;;;;;;4936912;29;20387;-83
2024/03/23 07:12:39;;;;;;;;;;;;;;;;;;4935370;29;19973;-82
2024/03/23 07:15:05;;;;;;;;;;;;;;;;;;4935878;29;19958;-83
2024/03/23 07:17:32;;;;;;;;;;;;;;;;;;4940071;29;19965;-82
2024/03/23 07:20:00;;;;;;;;;;;;;;;;;;4936143;29;20408;-82
2024/03/23 07:22:26;;;;;;;;;;;;;;;;;;4918728;29;19922;-82
2024/03/23 07:24:52;;;;;;;;;;;;;;;;;;4935279;29;19942;-82
2024/03/23 07:27:18;;;;;;;;;;;;;;;;;;4934128;29;19962;-82
2024/03/23 07:29:44;;;;;;;;;;;;;;;;;;4936613;29;20370;-83
2024/03/23 07:32:16;;;;;;;;;;;;;;;;;;4938949;29;20060;-83
2024/03/23 07:34:44;;;;;;;;;;;;;;;;;;4932683;29;20433;-81
2024/03/23 07:37:10;;;;;;;;;;;;;;;;;;4932456;29;20036;-81
2024/03/23 07:39:36;;;;;;;;;;;;;;;;;;4901266;29;20367;-81
2024/03/23 07:42:02;;;;;;;;;;;;;;;;;;4935554;29;19942;-83
2024/03/23 07:44:27;;;;;;;;;;;;;;;;;;4930556;29;20315;-82
2024/03/23 07:46:53;;;;;;;;;;;;;;;;;;4929100;29;19953;-85
2024/03/23 07:49:19;;;;;;;;;;;;;;;;;;4925568;29;19962;-84
2024/03/23 07:51:45;;;;;;;;;;;;;;;;;;4927479;29;19942;-82
2024/03/23 07:54:11;;;;;;;;;;;;;;;;;;4929527;29;19954;-83
2024/03/23 07:56:37;;;;;;;;;;;;;;;;;;4930503;29;20294;-83
2024/03/23 07:59:03;;;;;;;;;;;;;;;;;;4929409;29;19941;-82
2024/03/23 08:01:29;;;;;;;;;;;;;;;;;;4929920;29;19957;-83
2024/03/23 08:03:55;;;;;;;;;;;;;;;;;;4932478;29;19921;-83
2024/03/23 08:06:24;;;;;;;;;;;;;;;;;;4924377;29;19917;-85
2024/03/23 08:08:50;;;;;;;;;;;;;;;;;;4903691;29;19911;-86
2024/03/23 08:11:16;;;;;;;;;;;;;;;;;;4919082;29;19907;-86
2024/03/23 08:13:42;;;;;;;;;;;;;;;;;;4929676;29;19946;-87
2024/03/23 08:16:12;;;;;;;;;;;;;;;;;;4933633;29;20012;-86
2024/03/23 08:18:38;;;;;;;;;;;;;;;;;;4935666;29;19914;-85
2024/03/23 08:21:04;;;;;;;;;;;;;;;;;;4934830;29;20002;-86
2024/03/23 08:23:30;;;;;;;;;;;;;;;;;;4929399;29;20001;-86
2024/03/23 08:25:56;;;;;;;;;;;;;;;;;;4919590;29;20001;-87
2024/03/23 08:28:21;;;;;;;;;;;;;;;;;;4928737;29;20399;-86
2024/03/23 08:30:49;;;;;;;;;;;;;;;;;;4936324;29;19936;-86
2024/03/23 08:33:15;;;;;;;;;;;;;;;;;;4911730;29;19914;-87
2024/03/23 08:35:41;;;;;;;;;;;;;;;;;;4925092;29;19962;-81
2024/03/23 08:38:07;;;;;;;;;;;;;;;;;;4925219;29;20332;-80
2024/03/23 08:40:32;;;;;;;;;;;;;;;;;;4935514;29;19957;-81
2024/03/23 08:42:58;;;;;;;;;;;;;;;;;;4931288;29;20438;-80
2024/03/23 08:45:24;;;;;;;;;;;;;;;;;;4931087;29;19946;-81
2024/03/23 08:47:50;;;;;;;;;;;;;;;;;;4931841;29;19914;-79
2024/03/23 08:50:16;;;;;;;;;;;;;;;;;;4920766;29;19950;-80
2024/03/23 08:52:42;;;;;;;;;;;;;;;;;;4934461;29;19921;-81
2024/03/23 08:55:09;;;;;;;;;;;;;;;;;;4932885;29;19997;-80
2024/03/23 08:57:35;;;;;;;;;;;;;;;;;;4932312;29;20381;-80
2024/03/23 09:00:01;;;;;;;;;;;;;;;;;;4930529;29;20001;-80
2024/03/23 09:02:27;;;;;;;;;;;;;;;;;;4933657;29;19954;-79
2024/03/23 09:04:53;;;;;;;;;;;;;;;;;;4933228;29;20319;-80
2024/03/23 09:07:19;;;;;;;;;;;;;;;;;;4915405;29;20427;-82
2024/03/23 09:09:45;;;;;;;;;;;;;;;;;;4933699;29;20387;-82
2024/03/23 09:12:11;;;;;;;;;;;;;;;;;;4928855;29;20369;-81
2024/03/23 09:14:37;;;;;;;;;;;;;;;;;;4933174;29;19949;-81
2024/03/23 09:17:03;;;;;;;;;;;;;;;;;;4932756;29;20391;-81
2024/03/23 09:19:29;;;;;;;;;;;;;;;;;;4933272;29;20339;-80
2024/03/23 09:21:55;;;;;;;;;;;;;;;;;;4932725;29;19922;-81
2024/03/23 09:24:21;;;;;;;;;;;;;;;;;;4933577;29;19922;-79
2024/03/23 09:26:47;;;;;;;;;;;;;;;;;;4933896;29;20317;-85
2024/03/23 09:29:13;;;;;;;;;;;;;;;;;;4931147;29;19911;-84
2024/03/23 09:31:39;;;;;;;;;;;;;;;;;;4932322;29;20460;-80
2024/03/23 09:34:05;;;;;;;;;;;;;;;;;;4923459;29;19961;-80
2024/03/23 09:36:31;;;;;;;;;;;;;;;;;;4936786;29;20014;-84
2024/03/23 09:38:57;;;;;;;;;;;;;;;;;;4931162;29;20287;-80
2024/03/23 09:41:23;;;;;;;;;;;;;;;;;;4936284;29;19907;-79
2024/03/23 09:43:49;;;;;;;;;;;;;;;;;;4922831;29;20063;-81
2024/03/23 09:46:15;;;;;;;;;;;;;;;;;;4916579;29;20417;-81
2024/03/23 09:48:41;;;;;;;;;;;;;;;;;;4912839;29;19969;-80
2024/03/23 09:51:08;;;;;;;;;;;;;;;;;;4930654;29;19911;-79
2024/03/23 09:53:34;;;;;;;;;;;;;;;;;;4931672;29;19911;-80
2024/03/23 09:56:00;;;;;;;;;;;;;;;;;;4915060;29;19958;-81
2024/03/23 09:58:26;;;;;;;;;;;;;;;;;;4931728;29;19954;-81
2024/03/23 10:00:53;;;;;;;;;;;;;;;;;;4932297;29;19997;-80
2024/03/23 10:03:19;;;;;;;;;;;;;;;;;;4915086;29;19911;-82
2024/03/23 10:05:45;;;;;;;;;;;;;;;;;;4926831;29;20299;-81
2024/03/23 10:08:11;;;;;;;;;;;;;;;;;;4932885;29;20465;-82
2024/03/23 10:10:36;;;;;;;;;;;;;;;;;;4932601;29;20009;-81
2024/03/23 10:13:02;;;;;;;;;;;;;;;;;;4930016;29;19965;-80
2024/03/23 10:15:28;;;;;;;;;;;;;;;;;;4932530;29;19966;-82
2024/03/23 10:17:54;;;;;;;;;;;;;;;;;;4930626;29;19954;-81
2024/03/23 10:20:22;;;;;;;;;;;;;;;;;;4931871;29;20017;-82
2024/03/23 10:22:48;;;;;;;;;;;;;;;;;;4907794;29;20301;-80
2024/03/23 10:25:14;;;;;;;;;;;;;;;;;;4930068;29;19954;-82
2024/03/23 10:27:40;;;;;;;;;;;;;;;;;;4930697;29;20472;-80
2024/03/23 10:30:06;;;;;;;;;;;;;;;;;;4933143;29;19953;-81
2024/03/23 10:32:32;;;;;;;;;;;;;;;;;;4930517;29;19922;-82
2024/03/23 10:34:58;;;;;;;;;;;;;;;;;;4931148;29;19950;-82
2024/03/23 10:37:24;;;;;;;;;;;;;;;;;;4913098;29;19962;-82
2024/03/23 10:39:50;;;;;;;;;;;;;;;;;;4932700;29;19945;-81
2024/03/23 10:42:16;;;;;;;;;;;;;;;;;;4918642;29;20347;-81
2024/03/23 10:44:42;;;;;;;;;;;;;;;;;;4931480;29;19926;-81
2024/03/23 10:47:10;;;;;;;;;;;;;;;;;;4931972;29;19967;-82
2024/03/23 10:49:35;;;;;;;;;;;;;;;;;;4936850;29;19921;-81
2024/03/23 10:52:01;;;;;;;;;;;;;;;;;;4930053;29;19947;-81
2024/03/23 10:54:27;;;;;;;;;;;;;;;;;;4931388;29;19953;-80
2024/03/23 10:56:53;;;;;;;;;;;;;;;;;;4931301;29;20294;-80
2024/03/23 10:59:19;;;;;;;;;;;;;;;;;;4931836;29;19945;-82
2024/03/23 11:01:45;;;;;;;;;;;;;;;;;;4925982;29;19966;-81
2024/03/23 11:04:11;;;;;;;;;;;;;;;;;;4932048;29;19953;-81
2024/03/23 11:06:37;;;;;;;;;;;;;;;;;;4933137;29;19946;-81
2024/03/23 11:09:03;;;;;;;;;;;;;;;;;;4929875;29;20342;-81
2024/03/23 11:11:31;;;;;;;;;;;;;;;;;;4931948;29;20022;-81
2024/03/23 11:13:57;;;;;;;;;;;;;;;;;;4928103;29;19922;-82
2024/03/23 11:16:23;;;;;;;;;;;;;;;;;;4937723;29;19950;-82
2024/03/23 11:18:49;;;;;;;;;;;;;;;;;;4915814;29;19937;-80
2024/03/23 11:21:15;;;;;;;;;;;;;;;;;;4932711;29;20433;-81
2024/03/23 11:23:41;;;;;;;;;;;;;;;;;;4928919;29;19946;-82
2024/03/23 11:26:07;;;;;;;;;;;;;;;;;;4929659;29;19967;-82
2024/03/23 11:28:33;;;;;;;;;;;;;;;;;;4928987;29;19958;-81
2024/03/23 11:30:59;;;;;;;;;;;;;;;;;;4929996;29;19953;-80
2024/03/23 11:33:25;;;;;;;;;;;;;;;;;;4933754;29;19962;-81
2024/03/23 11:35:51;;;;;;;;;;;;;;;;;;4934724;29;19962;-80
2024/03/23 11:38:20;;;;;;;;;;;;;;;;;;4933125;29;19921;-82
2024/03/23 11:40:46;;;;;;;;;;;;;;;;;;4934669;29;19915;-82
2024/03/23 11:43:12;;;;;;;;;;;;;;;;;;4937605;29;19953;-81
2024/03/23 11:45:39;;;;;;;;;;;;;;;;;;4916109;29;19957;-82
2024/03/23 11:48:04;;;;;;;;;;;;;;;;;;4915216;29;19917;-82
2024/03/23 11:50:31;;;;;;;;;;;;;;;;;;4931941;29;19914;-82
2024/03/23 11:52:57;;;;;;;;;;;;;;;;;;4930142;29;19910;-82
2024/03/23 11:55:24;;;;;;;;;;;;;;;;;;4934771;29;20041;-82
2024/03/23 11:57:50;;;;;;;;;;;;;;;;;;4930965;29;19918;-81
2024/03/23 12:00:15;;;;;;;;;;;;;;;;;;4914713;29;19914;-83
2024/03/23 12:02:41;;;;;;;;;;;;;;;;;;4938296;29;20425;-82
2024/03/23 12:05:07;;;;;;;;;;;;;;;;;;4934564;29;20442;-84
2024/03/23 12:07:33;;;;;;;;;;;;;;;;;;4931500;29;20654;-83
2024/03/23 12:09:59;;;;;;;;;;;;;;;;;;4933405;29;19957;-83
2024/03/23 12:12:25;;;;;;;;;;;;;;;;;;4933630;29;20005;-83
2024/03/23 12:14:51;;;;;;;;;;;;;;;;;;4943534;29;19942;-83
2024/03/23 12:17:17;;;;;;;;;;;;;;;;;;4933916;29;19953;-83
2024/03/23 12:19:44;;;;;;;;;;;;;;;;;;4932809;29;20001;-83
2024/03/23 12:22:10;;;;;;;;;;;;;;;;;;4932418;29;20013;-83
2024/03/23 12:24:36;;;;;;;;;;;;;;;;;;4934297;29;19953;-83
2024/03/23 12:27:02;;;;;;;;;;;;;;;;;;4933716;29;19949;-83
2024/03/23 12:29:28;;;;;;;;;;;;;;;;;;4934270;29;19998;-83
2024/03/23 12:31:55;;;;;;;;;;;;;;;;;;4934273;29;20365;-82
2024/03/23 12:34:21;;;;;;;;;;;;;;;;;;4933845;29;19993;-83
2024/03/23 12:36:47;;;;;;;;;;;;;;;;;;4916772;29;20282;-83
2024/03/23 12:39:13;;;;;;;;;;;;;;;;;;4932819;29;19957;-83
2024/03/23 12:41:39;;;;;;;;;;;;;;;;;;4944639;29;19915;-83
2024/03/23 12:44:12;;;;;;;;;;;;;;;;;;4932478;29;20041;-83
2024/03/23 12:46:38;;;;;;;;;;;;;;;;;;4916937;29;20115;-83
2024/03/23 12:49:05;;;;;;;;;;;;;;;;;;4934592;29;19914;-83
2024/03/23 12:51:31;;;;;;;;;;;;;;;;;;4933123;29;19910;-83
2024/03/23 12:53:57;;;;;;;;;;;;;;;;;;4933348;29;19917;-82
2024/03/23 12:56:23;;;;;;;;;;;;;;;;;;4933625;29;19966;-83
2024/03/23 12:58:51;;;;;;;;;;;;;;;;;;4929515;29;19975;-82
2024/03/23 13:01:17;;;;;;;;;;;;;;;;;;4930550;29;19917;-82
2024/03/23 13:03:44;;;;;;;;;;;;;;;;;;4933022;29;19949;-82
2024/03/23 13:06:10;;;;;;;;;;;;;;;;;;4934455;29;20462;-82
2024/03/23 13:08:36;;;;;;;;;;;;;;;;;;4924603;29;20062;-82
2024/03/23 13:11:03;;;;;;;;;;;;;;;;;;4921926;29;19954;-82
2024/03/23 13:13:29;;;;;;;;;;;;;;;;;;4922903;29;20006;-82
2024/03/23 13:15:55;;;;;;;;;;;;;;;;;;4929938;29;20025;-82
2024/03/23 13:18:21;;;;;;;;;;;;;;;;;;4921567;29;19943;-81
2024/03/23 13:20:47;;;;;;;;;;;;;;;;;;4929101;29;19946;-82
2024/03/23 13:23:13;;;;;;;;;;;;;;;;;;4935083;29;19914;-82
2024/03/23 13:25:39;;;;;;;;;;;;;;;;;;4934480;29;19959;-83
2024/03/23 13:28:05;;;;;;;;;;;;;;;;;;4933609;29;20303;-82
2024/03/23 13:30:31;;;;;;;;;;;;;;;;;;4935927;29;20383;-83
2024/03/23 13:32:57;;;;;;;;;;;;;;;;;;4933261;29;20382;-82
2024/03/23 13:35:23;;;;;;;;;;;;;;;;;;4941093;29;20037;-82
2024/03/23 13:37:49;;;;;;;;;;;;;;;;;;4936741;29;19922;-81
2024/03/23 13:40:15;;;;;;;;;;;;;;;;;;4926602;29;20005;-80
2024/03/23 13:42:41;;;;;;;;;;;;;;;;;;4931277;29;19954;-81
2024/03/23 13:45:07;;;;;;;;;;;;;;;;;;4916086;29;19950;-82
2024/03/23 13:47:32;;;;;;;;;;;;;;;;;;4915782;29;19975;-82
2024/03/23 13:49:59;;;;;;;;;;;;;;;;;;4932069;29;19965;-81
2024/03/23 13:52:26;;;;;;;;;;;;;;;;;;4931561;29;19929;-83
2024/03/23 13:54:52;;;;;;;;;;;;;;;;;;4931292;29;19917;-82
2024/03/23 13:57:21;;;;;;;;;;;;;;;;;;4930303;29;19958;-82
2024/03/23 13:59:47;;;;;;;;;;;;;;;;;;4933084;29;20361;-81
2024/03/23 14:02:14;;;;;;;;;;;;;;;;;;4931359;29;19933;-82
2024/03/23 14:04:40;;;;;;;;;;;;;;;;;;4933474;29;20278;-83
2024/03/23 14:07:07;;;;;;;;;;;;;;;;;;4930399;29;19967;-82
2024/03/23 14:09:33;;;;;;;;;;;;;;;;;;4931729;29;19919;-82
2024/03/23 14:12:00;;;;;;;;;;;;;;;;;;4919048;29;20001;-83
2024/03/23 14:14:26;;;;;;;;;;;;;;;;;;4922228;29;19919;-83
2024/03/23 14:16:53;;;;;;;;;;;;;;;;;;4922007;29;20383;-81
2024/03/23 14:19:19;;;;;;;;;;;;;;;;;;4923520;29;19954;-83
2024/03/23 14:21:45;;;;;;;;;;;;;;;;;;4921160;29;19918;-81
2024/03/23 14:24:11;;;;;;;;;;;;;;;;;;4905462;29;19954;-81
2024/03/23 14:26:37;;;;;;;;;;;;;;;;;;4928157;29;19934;-81
2024/03/23 14:29:03;;;;;;;;;;;;;;;;;;4927490;29;19910;-82
2024/03/23 14:31:29;;;;;;;;;;;;;;;;;;4916025;29;20002;-83
2024/03/23 14:33:55;;;;;;;;;;;;;;;;;;4909808;29;20006;-83
2024/03/23 14:36:21;;;;;;;;;;;;;;;;;;4927654;29;19992;-83
2024/03/23 14:38:47;;;;;;;;;;;;;;;;;;4925627;29;19950;-83
2024/03/23 14:41:13;;;;;;;;;;;;;;;;;;4925490;29;19958;-83
2024/03/23 14:43:39;;;;;;;;;;;;;;;;;;4922716;29;19955;-83
2024/03/23 14:46:05;;;;;;;;;;;;;;;;;;4921770;29;19956;-84
2024/03/23 14:48:32;;;;;;;;;;;;;;;;;;4921970;29;19961;-83
2024/03/23 14:50:59;;;;;;;;;;;;;;;;;;4922459;29;20433;-84
2024/03/23 14:53:25;;;;;;;;;;;;;;;;;;4921730;29;20419;-83
2024/03/23 14:55:51;;;;;;;;;;;;;;;;;;4925650;29;19919;-83
2024/03/23 14:58:17;;;;;;;;;;;;;;;;;;4913118;29;20409;-83
2024/03/23 15:00:43;;;;;;;;;;;;;;;;;;4909874;29;19961;-83
2024/03/23 15:03:09;;;;;;;;;;;;;;;;;;4917979;29;19926;-83
2024/03/23 15:05:36;;;;;;;;;;;;;;;;;;4923829;29;19965;-83
2024/03/23 15:08:02;;;;;;;;;;;;;;;;;;4916771;29;19918;-83
2024/03/23 15:10:28;;;;;;;;;;;;;;;;;;4919879;29;19921;-83
2024/03/23 15:12:54;;;;;;;;;;;;;;;;;;4926296;29;19914;-83
2024/03/23 15:15:20;;;;;;;;;;;;;;;;;;4922708;29;19910;-83
2024/03/23 15:17:46;;;;;;;;;;;;;;;;;;4927013;29;20332;-83
2024/03/23 15:20:12;;;;;;;;;;;;;;;;;;4911688;29;19957;-83
2024/03/23 15:22:38;;;;;;;;;;;;;;;;;;4931931;29;19919;-83
2024/03/23 15:25:04;;;;;;;;;;;;;;;;;;4920221;29;19915;-84
2024/03/23 15:27:30;;;;;;;;;;;;;;;;;;4929048;29;20416;-83
2024/03/23 15:29:57;;;;;;;;;;;;;;;;;;4911238;29;20026;-83
2024/03/23 15:32:23;;;;;;;;;;;;;;;;;;4907916;29;19917;-83
2024/03/23 15:34:49;;;;;;;;;;;;;;;;;;4928003;29;19958;-83
2024/03/23 15:37:15;;;;;;;;;;;;;;;;;;4923163;29;19925;-83
2024/03/23 15:39:41;;;;;;;;;;;;;;;;;;4932249;29;19997;-83
2024/03/23 15:42:08;;;;;;;;;;;;;;;;;;4930656;29;20439;-83
2024/03/23 15:44:34;;;;;;;;;;;;;;;;;;4925088;29;20056;-83
2024/03/23 15:47:00;;;;;;;;;;;;;;;;;;4912052;29;19946;-83
2024/03/23 15:49:26;;;;;;;;;;;;;;;;;;4927681;29;19962;-83
2024/03/23 15:51:53;;;;;;;;;;;;;;;;;;4931886;29;19915;-83
2024/03/23 15:54:19;;;;;;;;;;;;;;;;;;4918706;29;19911;-83
2024/03/23 15:56:45;;;;;;;;;;;;;;;;;;4924190;29;19915;-84
2024/03/23 15:59:12;;;;;;;;;;;;;;;;;;4925654;29;19990;-84
2024/03/23 16:01:38;;;;;;;;;;;;;;;;;;4922346;29;19946;-83
2024/03/23 16:04:04;;;;;;;;;;;;;;;;;;4924584;29;19950;-83
2024/03/23 16:06:31;;;;;;;;;;;;;;;;;;4921321;29;20342;-83
2024/03/23 16:08:57;;;;;;;;;;;;;;;;;;4924943;29;20350;-83
2024/03/23 16:11:23;;;;;;;;;;;;;;;;;;4921273;29;19987;-84
2024/03/23 16:13:49;;;;;;;;;;;;;;;;;;4925560;29;19964;-83
2024/03/23 16:16:16;;;;;;;;;;;;;;;;;;4925762;29;19965;-83
2024/03/23 16:18:43;;;;;;;;;;;;;;;;;;4925512;29;19923;-83
2024/03/23 16:21:09;;;;;;;;;;;;;;;;;;4930256;29;19953;-83
2024/03/23 16:23:37;;;;;;;;;;;;;;;;;;4919537;29;20283;-84
2024/03/23 16:26:03;;;;;;;;;;;;;;;;;;4929251;29;19920;-83
2024/03/23 16:28:29;;;;;;;;;;;;;;;;;;4924532;29;19910;-83
2024/03/23 16:30:55;;;;;;;;;;;;;;;;;;4924279;29;19959;-83
2024/03/23 16:33:21;;;;;;;;;;;;;;;;;;4928336;29;19953;-83
2024/03/23 16:35:47;;;;;;;;;;;;;;;;;;4929339;29;19964;-83
2024/03/23 16:38:13;;;;;;;;;;;;;;;;;;4911477;29;19969;-83
2024/03/23 16:40:39;;;;;;;;;;;;;;;;;;4930865;29;19954;-83
2024/03/23 16:43:05;;;;;;;;;;;;;;;;;;4906698;29;19951;-83
2024/03/23 16:45:30;;;;;;;;;;;;;;;;;;4928646;29;19946;-84
2024/03/23 16:47:58;;;;;;;;;;;;;;;;;;4924300;29;19959;-84